sensor_id;sensor_type;location;lat;lon;timestamp;pressure;altitude;pressure_sealevel;temperature;humidity
66273;BME280;58450;52.150;4.466;2023-03-16T00:00:53;101653.06;;;5.72;100.00
66273;BME280;58450;52.150;4.466;2023-03-16T00:03:22;101649.41;;;5.73;100.00
66273;BME280;58450;52.150;4.466;2023-03-16T00:05:51;101642.25;;;5.74;100.00
66273;BME280;58450;52.150;4.466;2023-03-16T00:08:20;101644.31;;;5.70;100.00
66273;BME280;58450;52.150;4.466;2023-03-16T00:10:47;101648.97;;;5.68;100.00
66273;BME280;58450;52.150;4.466;2023-03-16T00:13:15;101652.22;;;5.72;100.00
66273;BME280;58450;52.150;4.466;2023-03-16T00:15:49;101644.22;;;5.72;100.00
66273;BME280;58450;52.150;4.466;2023-03-16T00:18:17;101654.03;;;5.71;100.00
66273;BME280;58450;52.150;4.466;2023-03-16T00:20:50;101651.25;;;5.83;100.00
66273;BME280;58450;52.150;4.466;2023-03-16T00:23:18;101646.03;;;5.81;100.00
66273;BME280;58450;52.150;4.466;2023-03-16T00:25:52;101642.38;;;5.82;100.00
66273;BME280;58450;52.150;4.466;2023-03-16T00:28:20;101629.75;;;5.84;100.00
66273;BME280;58450;52.150;4.466;2023-03-16T00:30:48;101622.72;;;5.83;100.00
66273;BME280;58450;52.150;4.466;2023-03-16T00:33:15;101625.53;;;5.82;100.00
66273;BME280;58450;52.150;4.466;2023-03-16T00:35:45;101622.41;;;5.76;100.00
66273;BME280;58450;52.150;4.466;2023-03-16T00:38:17;101622.28;;;5.78;100.00
66273;BME280;58450;52.150;4.466;2023-03-16T00:40:46;101618.06;;;5.75;100.00
66273;BME280;58450;52.150;4.466;2023-03-16T00:43:16;101614.84;;;5.72;100.00
66273;BME280;58450;52.150;4.466;2023-03-16T00:45:43;101611.84;;;5.75;100.00
66273;BME280;58450;52.150;4.466;2023-03-16T00:48:11;101604.97;;;5.72;100.00
66273;BME280;58450;52.150;4.466;2023-03-16T00:50:39;101609.50;;;5.72;100.00
66273;BME280;58450;52.150;4.466;2023-03-16T00:53:08;101607.09;;;5.69;100.00
66273;BME280;58450;52.150;4.466;2023-03-16T00:55:37;101590.09;;;5.70;100.00
66273;BME280;58450;52.150;4.466;2023-03-16T00:58:04;101591.19;;;5.67;100.00
66273;BME280;58450;52.150;4.466;2023-03-16T01:00:32;101585.13;;;5.65;100.00
66273;BME280;58450;52.150;4.466;2023-03-16T01:03:01;101585.28;;;5.64;100.00
66273;BME280;58450;52.150;4.466;2023-03-16T01:05:28;101588.06;;;5.62;100.00
66273;BME280;58450;52.150;4.466;2023-03-16T01:07:58;101590.91;;;5.60;100.00
66273;BME280;58450;52.150;4.466;2023-03-16T01:10:27;101584.13;;;5.56;100.00
66273;BME280;58450;52.150;4.466;2023-03-16T01:12:56;101591.72;;;5.61;100.00
66273;BME280;58450;52.150;4.466;2023-03-16T01:15:24;101577.41;;;5.62;100.00
66273;BME280;58450;52.150;4.466;2023-03-16T01:17:51;101581.50;;;5.66;100.00
66273;BME280;58450;52.150;4.466;2023-03-16T01:20:19;101574.06;;;5.70;100.00
66273;BME280;58450;52.150;4.466;2023-03-16T01:22:47;101572.66;;;5.66;100.00
66273;BME280;58450;52.150;4.466;2023-03-16T01:25:15;101563.22;;;5.61;100.00
66273;BME280;58450;52.150;4.466;2023-03-16T01:27:43;101561.38;;;5.62;100.00
66273;BME280;58450;52.150;4.466;2023-03-16T01:30:12;101555.75;;;5.65;100.00
66273;BME280;58450;52.150;4.466;2023-03-16T01:32:40;101547.31;;;5.60;100.00
66273;BME280;58450;52.150;4.466;2023-03-16T01:35:08;101545.94;;;5.66;100.00
66273;BME280;58450;52.150;4.466;2023-03-16T01:37:36;101542.69;;;5.62;100.00
66273;BME280;58450;52.150;4.466;2023-03-16T01:40:05;101545.50;;;5.60;100.00
66273;BME280;58450;52.150;4.466;2023-03-16T01:42:43;101537.78;;;5.67;100.00
66273;BME280;58450;52.150;4.466;2023-03-16T01:48:44;101531.03;;;5.63;100.00
66273;BME280;58450;52.150;4.466;2023-03-16T01:51:20;101532.75;;;5.74;100.00
66273;BME280;58450;52.150;4.466;2023-03-16T01:53:55;101532.16;;;5.70;100.00
66273;BME280;58450;52.150;4.466;2023-03-16T01:56:28;101524.31;;;5.69;100.00
66273;BME280;58450;52.150;4.466;2023-03-16T01:59:04;101518.97;;;5.69;100.00
66273;BME280;58450;52.150;4.466;2023-03-16T02:01:35;101525.41;;;5.66;100.00
66273;BME280;58450;52.150;4.466;2023-03-16T02:04:22;101520.78;;;5.68;100.00
66273;BME280;58450;52.150;4.466;2023-03-16T02:07:04;101515.44;;;5.78;100.00
66273;BME280;58450;52.150;4.466;2023-03-16T02:09:35;101514.88;;;5.74;100.00
66273;BME280;58450;52.150;4.466;2023-03-16T02:12:08;101510.53;;;5.73;100.00
66273;BME280;58450;52.150;4.466;2023-03-16T02:14:43;101504.19;;;5.74;100.00
66273;BME280;58450;52.150;4.466;2023-03-16T02:17:12;101501.38;;;5.76;100.00
66273;BME280;58450;52.150;4.466;2023-03-16T02:19:52;101490.28;;;5.81;100.00
66273;BME280;58450;52.150;4.466;2023-03-16T02:22:26;101492.81;;;5.82;100.00
66273;BME280;58450;52.150;4.466;2023-03-16T02:24:54;101489.72;;;5.77;100.00
66273;BME280;58450;52.150;4.466;2023-03-16T02:27:28;101486.06;;;5.78;100.00
66273;BME280;58450;52.150;4.466;2023-03-16T02:30:08;101491.00;;;5.73;100.00
66273;BME280;58450;52.150;4.466;2023-03-16T02:32:38;101484.53;;;5.75;100.00
66273;BME280;58450;52.150;4.466;2023-03-16T02:35:08;101480.72;;;5.78;100.00
66273;BME280;58450;52.150;4.466;2023-03-16T02:37:38;101491.53;;;5.76;100.00
66273;BME280;58450;52.150;4.466;2023-03-16T02:40:19;101490.69;;;5.76;100.00
66273;BME280;58450;52.150;4.466;2023-03-16T02:42:56;101487.03;;;5.77;100.00
66273;BME280;58450;52.150;4.466;2023-03-16T02:45:34;101480.31;;;5.73;100.00
66273;BME280;58450;52.150;4.466;2023-03-16T02:48:09;101474.97;;;5.73;100.00
66273;BME280;58450;52.150;4.466;2023-03-16T02:50:44;101470.88;;;5.79;100.00
66273;BME280;58450;52.150;4.466;2023-03-16T02:53:14;101476.34;;;5.77;100.00
66273;BME280;58450;52.150;4.466;2023-03-16T02:55:42;101478.03;;;5.78;100.00
66273;BME280;58450;52.150;4.466;2023-03-16T02:58:11;101472.31;;;5.73;100.00
66273;BME280;58450;52.150;4.466;2023-03-16T03:00:41;101480.88;;;5.76;100.00
66273;BME280;58450;52.150;4.466;2023-03-16T03:03:11;101479.03;;;5.77;100.00
66273;BME280;58450;52.150;4.466;2023-03-16T03:05:39;101479.47;;;5.72;100.00
66273;BME280;58450;52.150;4.466;2023-03-16T03:08:06;101470.03;;;5.78;100.00
66273;BME280;58450;52.150;4.466;2023-03-16T03:10:34;101472.00;;;5.76;100.00
66273;BME280;58450;52.150;4.466;2023-03-16T03:13:02;101466.66;;;5.76;100.00
66273;BME280;58450;52.150;4.466;2023-03-16T03:15:32;101462.00;;;5.78;100.00
66273;BME280;58450;52.150;4.466;2023-03-16T03:18:01;101464.28;;;5.73;100.00
66273;BME280;58450;52.150;4.466;2023-03-16T03:20:29;101449.97;;;5.74;100.00
66273;BME280;58450;52.150;4.466;2023-03-16T03:22:57;101447.56;;;5.71;100.00
66273;BME280;58450;52.150;4.466;2023-03-16T03:25:24;101445.88;;;5.70;100.00
66273;BME280;58450;52.150;4.466;2023-03-16T03:27:53;101442.50;;;5.68;100.00
66273;BME280;58450;52.150;4.466;2023-03-16T03:30:23;101434.50;;;5.68;100.00
66273;BME280;58450;52.150;4.466;2023-03-16T03:32:51;101431.25;;;5.64;100.00
66273;BME280;58450;52.150;4.466;2023-03-16T03:35:20;101421.41;;;5.65;100.00
66273;BME280;58450;52.150;4.466;2023-03-16T03:37:49;101430.41;;;5.64;100.00
66273;BME280;58450;52.150;4.466;2023-03-16T03:40:18;101430.25;;;5.65;100.00
66273;BME280;58450;52.150;4.466;2023-03-16T03:42:47;101426.88;;;5.63;100.00
66273;BME280;58450;52.150;4.466;2023-03-16T03:45:15;101422.25;;;5.65;100.00
66273;BME280;58450;52.150;4.466;2023-03-16T03:47:43;101421.41;;;5.65;100.00
66273;BME280;58450;52.150;4.466;2023-03-16T03:50:12;101422.25;;;5.65;100.00
66273;BME280;58450;52.150;4.466;2023-03-16T03:52:41;101415.94;;;5.66;100.00
66273;BME280;58450;52.150;4.466;2023-03-16T03:55:09;101415.81;;;5.68;100.00
66273;BME280;58450;52.150;4.466;2023-03-16T03:57:37;101421.13;;;5.68;100.00
66273;BME280;58450;52.150;4.466;2023-03-16T04:00:06;101419.72;;;5.73;100.00
66273;BME280;58450;52.150;4.466;2023-03-16T04:02:36;101417.31;;;5.70;100.00
66273;BME280;58450;52.150;4.466;2023-03-16T04:05:05;101413.69;;;5.71;100.00
66273;BME280;58450;52.150;4.466;2023-03-16T04:07:33;101422.13;;;5.67;100.00
66273;BME280;58450;52.150;4.466;2023-03-16T04:10:03;101416.91;;;5.65;100.00
66273;BME280;58450;52.150;4.466;2023-03-16T04:12:32;101413.41;;;5.65;100.00
66273;BME280;58450;52.150;4.466;2023-03-16T04:14:59;101413.97;;;5.58;100.00
66273;BME280;58450;52.150;4.466;2023-03-16T04:17:27;101415.78;;;5.58;100.00
66273;BME280;58450;52.150;4.466;2023-03-16T04:19:54;101413.09;;;5.58;100.00
66273;BME280;58450;52.150;4.466;2023-03-16T04:22:22;101407.94;;;5.56;100.00
66273;BME280;58450;52.150;4.466;2023-03-16T04:24:49;101404.56;;;5.54;100.00
66273;BME280;58450;52.150;4.466;2023-03-16T04:27:19;101402.00;;;5.53;100.00
66273;BME280;58450;52.150;4.466;2023-03-16T04:29:46;101403.69;;;5.54;100.00
66273;BME280;58450;52.150;4.466;2023-03-16T04:32:14;101397.66;;;5.52;100.00
66273;BME280;58450;52.150;4.466;2023-03-16T04:34:42;101395.69;;;5.54;100.00
66273;BME280;58450;52.150;4.466;2023-03-16T04:37:10;101390.50;;;5.52;100.00
66273;BME280;58450;52.150;4.466;2023-03-16T04:39:38;101394.16;;;5.51;100.00
66273;BME280;58450;52.150;4.466;2023-03-16T04:42:06;101384.47;;;5.50;100.00
66273;BME280;58450;52.150;4.466;2023-03-16T04:44:35;101386.25;;;5.50;100.00
66273;BME280;58450;52.150;4.466;2023-03-16T04:47:09;101381.38;;;5.45;100.00
66273;BME280;58450;52.150;4.466;2023-03-16T04:49:36;101383.59;;;5.50;100.00
66273;BME280;58450;52.150;4.466;2023-03-16T04:52:04;101381.22;;;5.46;100.00
66273;BME280;58450;52.150;4.466;2023-03-16T04:54:32;101376.03;;;5.45;100.00
66273;BME280;58450;52.150;4.466;2023-03-16T04:57:00;101378.00;;;5.43;100.00
66273;BME280;58450;52.150;4.466;2023-03-16T04:59:30;101375.59;;;5.40;100.00
66273;BME280;58450;52.150;4.466;2023-03-16T05:01:59;101367.16;;;5.35;100.00
66273;BME280;58450;52.150;4.466;2023-03-16T05:04:27;101363.50;;;5.36;100.00
66273;BME280;58450;52.150;4.466;2023-03-16T05:06:54;101360.97;;;5.34;100.00
66273;BME280;58450;52.150;4.466;2023-03-16T05:09:22;101355.91;;;5.31;100.00
66273;BME280;58450;52.150;4.466;2023-03-16T05:11:50;101348.91;;;5.30;100.00
66273;BME280;58450;52.150;4.466;2023-03-16T05:14:18;101350.03;;;5.27;100.00
66273;BME280;58450;52.150;4.466;2023-03-16T05:16:45;101349.19;;;5.27;100.00
66273;BME280;58450;52.150;4.466;2023-03-16T05:19:14;101349.47;;;5.24;100.00
66273;BME280;58450;52.150;4.466;2023-03-16T05:21:42;101345.94;;;5.23;100.00
66273;BME280;58450;52.150;4.466;2023-03-16T05:24:11;101338.09;;;5.22;100.00
66273;BME280;58450;52.150;4.466;2023-03-16T05:26:38;101338.22;;;5.20;100.00
66273;BME280;58450;52.150;4.466;2023-03-16T05:29:06;101338.22;;;5.20;100.00
66273;BME280;58450;52.150;4.466;2023-03-16T05:31:33;101347.38;;;5.17;100.00
66273;BME280;58450;52.150;4.466;2023-03-16T05:34:02;101345.94;;;5.13;100.00
66273;BME280;58450;52.150;4.466;2023-03-16T05:36:32;101334.13;;;5.16;100.00
66273;BME280;58450;52.150;4.466;2023-03-16T05:39:00;101351.00;;;5.16;100.00
66273;BME280;58450;52.150;4.466;2023-03-16T05:41:28;101351.84;;;5.17;100.00
66273;BME280;58450;52.150;4.466;2023-03-16T05:43:56;101351.28;;;5.13;100.00
66273;BME280;58450;52.150;4.466;2023-03-16T05:46:23;101339.91;;;5.11;100.00
66273;BME280;58450;52.150;4.466;2023-03-16T05:48:51;101341.88;;;5.09;100.00
66273;BME280;58450;52.150;4.466;2023-03-16T05:51:18;101342.84;;;5.08;100.00
66273;BME280;58450;52.150;4.466;2023-03-16T05:53:48;101338.22;;;5.10;100.00
66273;BME280;58450;52.150;4.466;2023-03-16T05:56:15;101338.78;;;5.14;100.00
66273;BME280;58450;52.150;4.466;2023-03-16T05:58:43;101341.59;;;5.12;100.00
66273;BME280;58450;52.150;4.466;2023-03-16T06:01:11;101336.09;;;5.14;100.00
66273;BME280;58450;52.150;4.466;2023-03-16T06:03:40;101338.06;;;5.12;100.00
66273;BME280;58450;52.150;4.466;2023-03-16T06:06:08;101337.78;;;5.15;100.00
66273;BME280;58450;52.150;4.466;2023-03-16T06:08:36;101339.91;;;5.21;100.00
66273;BME280;58450;52.150;4.466;2023-03-16T06:11:05;101336.13;;;5.33;100.00
66273;BME280;58450;52.150;4.466;2023-03-16T06:13:33;101329.94;;;5.23;100.00
66273;BME280;58450;52.150;4.466;2023-03-16T06:16:01;101335.28;;;5.23;100.00
66273;BME280;58450;52.150;4.466;2023-03-16T06:18:29;101334.28;;;5.24;100.00
66273;BME280;58450;52.150;4.466;2023-03-16T06:20:56;101329.81;;;5.25;100.00
66273;BME280;58450;52.150;4.466;2023-03-16T06:23:24;101321.94;;;5.23;100.00
66273;BME280;58450;52.150;4.466;2023-03-16T06:25:51;101317.44;;;5.24;100.00
66273;BME280;58450;52.150;4.466;2023-03-16T06:28:22;101314.50;;;5.27;100.00
66273;BME280;58450;52.150;4.466;2023-03-16T06:30:52;101316.59;;;5.23;100.00
66273;BME280;58450;52.150;4.466;2023-03-16T06:33:20;101315.63;;;5.24;100.00
66273;BME280;58450;52.150;4.466;2023-03-16T06:35:48;101304.81;;;5.26;100.00
66273;BME280;58450;52.150;4.466;2023-03-16T06:38:16;101300.31;;;5.26;100.00
66273;BME280;58450;52.150;4.466;2023-03-16T06:40:45;101309.88;;;5.29;100.00
66273;BME280;58450;52.150;4.466;2023-03-16T06:43:12;101298.78;;;5.24;100.00
66273;BME280;58450;52.150;4.466;2023-03-16T06:45:41;101304.25;;;5.22;100.00
66273;BME280;58450;52.150;4.466;2023-03-16T06:48:09;101295.25;;;5.23;100.00
66273;BME280;58450;52.150;4.466;2023-03-16T06:50:37;101295.41;;;5.22;100.00
66273;BME280;58450;52.150;4.466;2023-03-16T06:53:04;101304.25;;;5.22;100.00
66273;BME280;58450;52.150;4.466;2023-03-16T06:55:32;101293.72;;;5.21;100.00
66273;BME280;58450;52.150;4.466;2023-03-16T06:57:59;101300.03;;;5.20;100.00
66273;BME280;58450;52.150;4.466;2023-03-16T07:00:27;101294.69;;;5.20;100.00
66273;BME280;58450;52.150;4.466;2023-03-16T07:02:57;101299.88;;;5.21;100.00
66273;BME280;58450;52.150;4.466;2023-03-16T07:05:24;101289.50;;;5.18;100.00
66273;BME280;58450;52.150;4.466;2023-03-16T07:07:52;101285.56;;;5.22;100.00
66273;BME280;58450;52.150;4.466;2023-03-16T07:10:20;101290.63;;;5.25;100.00
66273;BME280;58450;52.150;4.466;2023-03-16T07:12:47;101291.47;;;5.26;100.00
66273;BME280;58450;52.150;4.466;2023-03-16T07:15:16;101289.06;;;5.32;100.00
66273;BME280;58450;52.150;4.466;2023-03-16T07:17:44;101279.09;;;5.35;100.00
66273;BME280;58450;52.150;4.466;2023-03-16T07:20:13;101286.41;;;5.32;100.00
66273;BME280;58450;52.150;4.466;2023-03-16T07:22:40;101277.25;;;5.35;100.00
66273;BME280;58450;52.150;4.466;2023-03-16T07:25:08;101281.19;;;5.41;100.00
66273;BME280;58450;52.150;4.466;2023-03-16T07:27:37;101286.66;;;5.49;100.00
66273;BME280;58450;52.150;4.466;2023-03-16T07:30:07;101290.16;;;5.59;100.00
66273;BME280;58450;52.150;4.466;2023-03-16T07:32:37;101294.91;;;5.75;100.00
66273;BME280;58450;52.150;4.466;2023-03-16T07:35:05;101292.34;;;5.84;100.00
66273;BME280;58450;52.150;4.466;2023-03-16T07:37:34;101293.88;;;5.86;100.00
66273;BME280;58450;52.150;4.466;2023-03-16T07:40:04;101291.19;;;5.96;100.00
66273;BME280;58450;52.150;4.466;2023-03-16T07:42:34;101284.59;;;6.00;100.00
66273;BME280;58450;52.150;4.466;2023-03-16T07:45:03;101283.31;;;5.95;100.00
66273;BME280;58450;52.150;4.466;2023-03-16T07:47:32;101290.88;;;6.09;100.00
66273;BME280;58450;52.150;4.466;2023-03-16T07:50:00;101291.59;;;6.11;100.00
66273;BME280;58450;52.150;4.466;2023-03-16T07:52:28;101288.81;;;6.03;100.00
66273;BME280;58450;52.150;4.466;2023-03-16T07:54:57;101286.53;;;6.08;100.00
66273;BME280;58450;52.150;4.466;2023-03-16T07:57:24;101287.09;;;6.12;100.00
66273;BME280;58450;52.150;4.466;2023-03-16T07:59:52;101287.94;;;6.12;100.00
66273;BME280;58450;52.150;4.466;2023-03-16T08:02:20;101282.28;;;6.15;100.00
66273;BME280;58450;52.150;4.466;2023-03-16T08:04:47;101289.84;;;6.20;100.00
66273;BME280;58450;52.150;4.466;2023-03-16T08:07:15;101282.22;;;6.25;100.00
66273;BME280;58450;52.150;4.466;2023-03-16T08:09:43;101286.28;;;6.29;100.00
66273;BME280;58450;52.150;4.466;2023-03-16T08:12:12;101289.06;;;6.38;100.00
66273;BME280;58450;52.150;4.466;2023-03-16T08:14:40;101283.13;;;6.44;100.00
66273;BME280;58450;52.150;4.466;2023-03-16T08:17:11;101286.06;;;6.50;100.00
66273;BME280;58450;52.150;4.466;2023-03-16T08:19:39;101287.06;;;6.49;100.00
66273;BME280;58450;52.150;4.466;2023-03-16T08:22:08;101285.91;;;6.52;100.00
66273;BME280;58450;52.150;4.466;2023-03-16T08:24:35;101280.25;;;6.55;100.00
66273;BME280;58450;52.150;4.466;2023-03-16T08:27:03;101281.81;;;6.58;100.00
66273;BME280;58450;52.150;4.466;2023-03-16T08:29:32;101285.31;;;6.58;100.00
66273;BME280;58450;52.150;4.466;2023-03-16T08:32:00;101284.72;;;6.64;100.00
66273;BME280;58450;52.150;4.466;2023-03-16T08:34:28;101275.53;;;6.67;100.00
66273;BME280;58450;52.150;4.466;2023-03-16T08:36:56;101273.25;;;6.72;100.00
66273;BME280;58450;52.150;4.466;2023-03-16T08:39:26;101277.69;;;6.82;100.00
66273;BME280;58450;52.150;4.466;2023-03-16T08:41:54;101268.22;;;6.87;100.00
66273;BME280;58450;52.150;4.466;2023-03-16T08:44:21;101267.31;;;6.97;100.00
66273;BME280;58450;52.150;4.466;2023-03-16T08:46:52;101255.53;;;7.07;100.00
66273;BME280;58450;52.150;4.466;2023-03-16T08:49:20;101273.47;;;7.15;100.00
66273;BME280;58450;52.150;4.466;2023-03-16T08:51:49;101259.41;;;7.31;100.00
66273;BME280;58450;52.150;4.466;2023-03-16T08:54:16;101257.00;;;7.46;100.00
66273;BME280;58450;52.150;4.466;2023-03-16T08:56:44;101244.72;;;7.62;100.00
66273;BME280;58450;52.150;4.466;2023-03-16T08:59:11;101251.75;;;7.63;100.00
66273;BME280;58450;52.150;4.466;2023-03-16T09:01:39;101249.97;;;7.72;100.00
66273;BME280;58450;52.150;4.466;2023-03-16T09:04:08;101253.56;;;7.80;100.00
66273;BME280;58450;52.150;4.466;2023-03-16T09:06:36;101253.75;;;7.87;100.00
66273;BME280;58450;52.150;4.466;2023-03-16T09:09:04;101244.75;;;7.96;100.00
66273;BME280;58450;52.150;4.466;2023-03-16T09:11:32;101246.69;;;8.21;100.00
66273;BME280;58450;52.150;4.466;2023-03-16T09:13:59;101250.47;;;8.45;100.00
66273;BME280;58450;52.150;4.466;2023-03-16T09:16:27;101237.00;;;8.87;100.00
66273;BME280;58450;52.150;4.466;2023-03-16T09:18:55;101238.38;;;9.16;100.00
66273;BME280;58450;52.150;4.466;2023-03-16T09:21:24;101255.50;;;9.24;100.00
66273;BME280;58450;52.150;4.466;2023-03-16T09:23:52;101242.72;;;9.18;100.00
66273;BME280;58450;52.150;4.466;2023-03-16T09:26:21;101260.31;;;9.70;100.00
66273;BME280;58450;52.150;4.466;2023-03-16T09:28:49;101245.31;;;10.63;100.00
66273;BME280;58450;52.150;4.466;2023-03-16T09:31:18;101248.56;;;11.05;100.00
66273;BME280;58450;52.150;4.466;2023-03-16T09:33:46;101235.41;;;11.94;99.88
66273;BME280;58450;52.150;4.466;2023-03-16T09:36:14;101239.09;;;12.96;93.33
66273;BME280;58450;52.150;4.466;2023-03-16T09:38:44;101230.94;;;12.68;87.47
66273;BME280;58450;52.150;4.466;2023-03-16T09:41:22;101221.50;;;12.79;82.07
66273;BME280;58450;52.150;4.466;2023-03-16T09:44:04;101224.50;;;12.69;79.28
66273;BME280;58450;52.150;4.466;2023-03-16T09:46:45;101231.25;;;12.58;79.15
66273;BME280;58450;52.150;4.466;2023-03-16T09:49:16;101229.00;;;12.25;82.90
66273;BME280;58450;52.150;4.466;2023-03-16T09:51:50;101222.78;;;12.24;82.99
66273;BME280;58450;52.150;4.466;2023-03-16T09:54:34;101230.97;;;12.01;84.89
66273;BME280;58450;52.150;4.466;2023-03-16T09:57:13;101234.56;;;11.63;84.83
66273;BME280;58450;52.150;4.466;2023-03-16T09:59:50;101246.88;;;11.28;86.95
66273;BME280;58450;52.150;4.466;2023-03-16T10:02:37;101239.06;;;11.33;89.99
66273;BME280;58450;52.150;4.466;2023-03-16T10:05:15;101234.09;;;10.83;92.79
66273;BME280;58450;52.150;4.466;2023-03-16T10:07:56;101228.81;;;10.90;96.11
66273;BME280;58450;52.150;4.466;2023-03-16T10:10:48;101232.22;;;10.60;96.89
66273;BME280;58450;52.150;4.466;2023-03-16T10:13:36;101225.94;;;10.37;100.00
66273;BME280;58450;52.150;4.466;2023-03-16T10:16:15;101222.53;;;10.51;98.58
66273;BME280;58450;52.150;4.466;2023-03-16T10:18:49;101218.03;;;10.35;99.54
66273;BME280;58450;52.150;4.466;2023-03-16T10:21:23;101224.03;;;10.54;100.00
66273;BME280;58450;52.150;4.466;2023-03-16T10:23:53;101213.13;;;10.39;99.01
66273;BME280;58450;52.150;4.466;2023-03-16T10:26:32;101227.94;;;10.43;98.11
66273;BME280;58450;52.150;4.466;2023-03-16T10:29:10;101225.34;;;10.58;99.08
66273;BME280;58450;52.150;4.466;2023-03-16T10:31:39;101223.88;;;10.47;98.70
66273;BME280;58450;52.150;4.466;2023-03-16T10:34:08;101219.03;;;10.74;99.86
66273;BME280;58450;52.150;4.466;2023-03-16T10:36:38;101212.06;;;10.79;96.27
66273;BME280;58450;52.150;4.466;2023-03-16T10:39:11;101203.56;;;10.91;95.15
66273;BME280;58450;52.150;4.466;2023-03-16T10:41:44;101185.88;;;10.97;97.34
66273;BME280;58450;52.150;4.466;2023-03-16T10:44:27;101183.06;;;11.05;95.28
66273;BME280;58450;52.150;4.466;2023-03-16T10:47:00;101192.69;;;10.84;94.85
66273;BME280;58450;52.150;4.466;2023-03-16T10:49:35;101196.19;;;11.08;95.80
66273;BME280;58450;52.150;4.466;2023-03-16T10:52:13;101199.81;;;10.77;95.01
66273;BME280;58450;52.150;4.466;2023-03-16T10:54:49;101182.69;;;10.93;94.31
66273;BME280;58450;52.150;4.466;2023-03-16T10:57:25;101179.28;;;10.99;96.81
66273;BME280;58450;52.150;4.466;2023-03-16T11:00:02;101172.84;;;10.85;93.29
66273;BME280;58450;52.150;4.466;2023-03-16T11:02:42;101180.38;;;11.05;94.14
66273;BME280;58450;52.150;4.466;2023-03-16T11:05:12;101182.22;;;10.89;93.70
66273;BME280;58450;52.150;4.466;2023-03-16T11:07:53;101186.34;;;10.77;96.50
66273;BME280;58450;52.150;4.466;2023-03-16T11:10:30;101178.44;;;10.75;94.35
66273;BME280;58450;52.150;4.466;2023-03-16T11:13:07;101180.63;;;10.57;95.44
66273;BME280;58450;52.150;4.466;2023-03-16T11:15:45;101168.28;;;10.62;96.66
66273;BME280;58450;52.150;4.466;2023-03-16T11:18:26;101170.50;;;10.82;98.15
66273;BME280;58450;52.150;4.466;2023-03-16T11:20:57;101168.47;;;10.84;97.48
66273;BME280;58450;52.150;4.466;2023-03-16T11:23:31;101165.78;;;10.84;97.70
66273;BME280;58450;52.150;4.466;2023-03-16T11:26:03;101160.25;;;10.77;95.29
66273;BME280;58450;52.150;4.466;2023-03-16T11:28:42;101150.03;;;10.73;93.77
66273;BME280;58450;52.150;4.466;2023-03-16T11:31:19;101152.53;;;10.74;92.68
66273;BME280;58450;52.150;4.466;2023-03-16T11:33:52;101156.50;;;10.63;92.05
66273;BME280;58450;52.150;4.466;2023-03-16T11:36:34;101139.31;;;10.88;92.35
66273;BME280;58450;52.150;4.466;2023-03-16T11:39:20;101157.00;;;11.05;90.74
66273;BME280;58450;52.150;4.466;2023-03-16T11:42:02;101151.34;;;11.15;90.75
66273;BME280;58450;52.150;4.466;2023-03-16T11:44:43;101154.59;;;11.26;89.55
66273;BME280;58450;52.150;4.466;2023-03-16T11:47:55;101160.34;;;11.22;83.97
66273;BME280;58450;52.150;4.466;2023-03-16T11:50:49;101143.50;;;11.44;85.45
66273;BME280;58450;52.150;4.466;2023-03-16T11:53:34;101136.31;;;11.51;83.54
66273;BME280;58450;52.150;4.466;2023-03-16T11:56:18;101134.53;;;11.58;81.67
66273;BME280;58450;52.150;4.466;2023-03-16T11:59:02;101143.38;;;11.67;80.33
66273;BME280;58450;52.150;4.466;2023-03-16T12:02:21;101150.34;;;11.46;76.42
66273;BME280;58450;52.150;4.466;2023-03-16T12:08:23;101138.34;;;11.79;72.29
66273;BME280;58450;52.150;4.466;2023-03-16T12:11:08;101122.53;;;11.91;73.51
66273;BME280;58450;52.150;4.466;2023-03-16T12:13:56;101139.09;;;11.88;71.88
66273;BME280;58450;52.150;4.466;2023-03-16T12:16:33;101124.28;;;11.98;70.74
66273;BME280;58450;52.150;4.466;2023-03-16T12:19:14;101113.56;;;12.05;69.89
66273;BME280;58450;52.150;4.466;2023-03-16T12:21:48;101112.78;;;11.90;68.66
66273;BME280;58450;52.150;4.466;2023-03-16T12:24:28;101108.28;;;12.12;67.82
66273;BME280;58450;52.150;4.466;2023-03-16T12:27:07;101107.50;;;12.40;68.03
66273;BME280;58450;52.150;4.466;2023-03-16T12:29:50;101083.06;;;12.48;66.15
66273;BME280;58450;52.150;4.466;2023-03-16T12:32:29;101071.31;;;12.56;65.00
66273;BME280;58450;52.150;4.466;2023-03-16T12:35:17;101085.84;;;12.55;64.71
66273;BME280;58450;52.150;4.466;2023-03-16T12:38:02;101098.56;;;12.61;63.12
66273;BME280;58450;52.150;4.466;2023-03-16T12:40:48;101076.38;;;12.66;63.16
66273;BME280;58450;52.150;4.466;2023-03-16T12:43:38;101079.31;;;12.71;61.60
66273;BME280;58450;52.150;4.466;2023-03-16T12:46:17;101074.28;;;12.61;63.71
66273;BME280;58450;52.150;4.466;2023-03-16T12:48:54;101068.66;;;12.63;63.19
66273;BME280;58450;52.150;4.466;2023-03-16T12:51:33;101068.41;;;12.57;63.87
66273;BME280;58450;52.150;4.466;2023-03-16T12:54:02;101086.63;;;12.27;63.85
66273;BME280;58450;52.150;4.466;2023-03-16T12:56:32;101072.28;;;12.48;64.47
66273;BME280;58450;52.150;4.466;2023-03-16T12:59:03;101062.94;;;12.73;66.36
66273;BME280;58450;52.150;4.466;2023-03-16T13:01:37;101056.16;;;12.83;65.12
66273;BME280;58450;52.150;4.466;2023-03-16T13:04:10;101056.13;;;12.77;64.05
66273;BME280;58450;52.150;4.466;2023-03-16T13:06:44;101041.25;;;12.94;63.87
66273;BME280;58450;52.150;4.466;2023-03-16T13:09:18;101066.28;;;12.75;64.10
66273;BME280;58450;52.150;4.466;2023-03-16T13:11:52;101030.22;;;12.89;63.59
66273;BME280;58450;52.150;4.466;2023-03-16T13:14:34;101041.97;;;13.10;63.39
66273;BME280;58450;52.150;4.466;2023-03-16T13:17:21;101033.94;;;13.17;63.12
66273;BME280;58450;52.150;4.466;2023-03-16T13:19:59;101032.19;;;13.09;62.03